ADDS METAR Data

Data at: 0502 UTC 20 Apr 2018

METAR for:KBVY (Beverly Muni, MA, US)
Text:KBVY 200453Z AUTO 30010G19KT 10SM OVC090 04/M02 A2982 RMK AO2 SLP093 T00441022 400720011
Temperature: 4.4°C ( 40°F)
Dewpoint: -2.2°C ( 28°F) [RH = 62%]
Pressure (altimeter):29.82 inches Hg (1009.9 mb) [Sea level pressure: 1009.3 mb]
Winds:from the WNW (300 degrees) at 12 MPH (10 knots; 5.1 m/s) gusting to 22 MPH (19 knots; 9.8 m/s)
Visibility:10 or more sm (16+ km)
Ceiling:9000 feet AGL
Clouds: overcast cloud deck at 9000 feet AGL
QC Flag:automated observation with no human augmentation